sensor_id;sensor_type;location;lat;lon;timestamp;pressure;altitude;pressure_sealevel;temperature;humidity
31121;BME280;17770;45.966;13.632;2023-06-26T00:01:27;100528.56;;;31.72;35.03
31121;BME280;17770;45.966;13.632;2023-06-26T00:03:59;100529.75;;;31.70;35.48
31121;BME280;17770;45.966;13.632;2023-06-26T00:06:26;100531.75;;;31.68;35.11
31121;BME280;17770;45.966;13.632;2023-06-26T00:08:53;100530.75;;;31.69;35.58
31121;BME280;17770;45.966;13.632;2023-06-26T00:11:19;100536.31;;;31.59;35.16
31121;BME280;17770;45.966;13.632;2023-06-26T00:13:45;100532.00;;;31.50;35.51
31121;BME280;17770;45.966;13.632;2023-06-26T00:16:11;100528.72;;;31.48;36.02
31121;BME280;17770;45.966;13.632;2023-06-26T00:18:37;100530.53;;;31.48;35.86
31121;BME280;17770;45.966;13.632;2023-06-26T00:21:03;100528.22;;;31.45;35.33
31121;BME280;17770;45.966;13.632;2023-06-26T00:23:28;100526.91;;;31.41;35.84
31121;BME280;17770;45.966;13.632;2023-06-26T00:25:56;100525.91;;;31.42;35.63
31121;BME280;17770;45.966;13.632;2023-06-26T00:28:22;100525.44;;;31.38;36.10
31121;BME280;17770;45.966;13.632;2023-06-26T00:30:48;100529.56;;;31.41;35.95
31121;BME280;17770;45.966;13.632;2023-06-26T00:33:14;100528.72;;;31.40;35.68
31121;BME280;17770;45.966;13.632;2023-06-26T00:35:41;100527.25;;;31.38;36.17
31121;BME280;17770;45.966;13.632;2023-06-26T00:38:06;100534.41;;;31.37;36.12
31121;BME280;17770;45.966;13.632;2023-06-26T00:40:32;100521.25;;;31.36;36.11
31121;BME280;17770;45.966;13.632;2023-06-26T00:42:58;100528.44;;;31.35;35.68
31121;BME280;17770;45.966;13.632;2023-06-26T00:45:24;100524.75;;;31.36;36.17
31121;BME280;17770;45.966;13.632;2023-06-26T00:47:51;100525.94;;;31.34;36.13
31121;BME280;17770;45.966;13.632;2023-06-26T00:50:17;100523.44;;;31.32;36.23
31121;BME280;17770;45.966;13.632;2023-06-26T00:52:45;100526.25;;;31.31;36.34
31121;BME280;17770;45.966;13.632;2023-06-26T00:55:11;100528.91;;;31.31;35.74
31121;BME280;17770;45.966;13.632;2023-06-26T00:57:36;100521.09;;;31.29;36.51
31121;BME280;17770;45.966;13.632;2023-06-26T01:00:03;100524.94;;;31.27;36.45
31121;BME280;17770;45.966;13.632;2023-06-26T01:02:30;100526.78;;;31.26;36.06
31121;BME280;17770;45.966;13.632;2023-06-26T01:04:59;100525.13;;;31.25;36.17
31121;BME280;17770;45.966;13.632;2023-06-26T01:07:27;100523.44;;;31.24;35.78
31121;BME280;17770;45.966;13.632;2023-06-26T01:09:53;100524.47;;;31.23;35.90
31121;BME280;17770;45.966;13.632;2023-06-26T01:12:19;100521.13;;;31.21;36.58
31121;BME280;17770;45.966;13.632;2023-06-26T01:14:47;100514.16;;;31.20;36.43
31121;BME280;17770;45.966;13.632;2023-06-26T01:17:13;100514.34;;;31.19;36.53
31121;BME280;17770;45.966;13.632;2023-06-26T01:19:41;100512.66;;;31.18;36.44
31121;BME280;17770;45.966;13.632;2023-06-26T01:22:17;100508.50;;;31.15;36.65
31121;BME280;17770;45.966;13.632;2023-06-26T01:24:47;100507.50;;;31.16;35.99
31121;BME280;17770;45.966;13.632;2023-06-26T01:27:19;100508.69;;;31.14;36.58
31121;BME280;17770;45.966;13.632;2023-06-26T01:29:48;100505.19;;;31.13;35.92
31121;BME280;17770;45.966;13.632;2023-06-26T01:32:15;100506.34;;;31.11;36.46
31121;BME280;17770;45.966;13.632;2023-06-26T01:34:42;100509.00;;;31.11;36.38
31121;BME280;17770;45.966;13.632;2023-06-26T01:37:07;100503.84;;;31.09;36.10
31121;BME280;17770;45.966;13.632;2023-06-26T01:39:33;100497.72;;;31.09;36.01
31121;BME280;17770;45.966;13.632;2023-06-26T01:41:59;100498.88;;;31.06;36.48
31121;BME280;17770;45.966;13.632;2023-06-26T01:44:28;100499.06;;;31.05;36.20
31121;BME280;17770;45.966;13.632;2023-06-26T01:47:02;100498.22;;;31.04;36.66
31121;BME280;17770;45.966;13.632;2023-06-26T01:55:32;100502.72;;;31.04;36.09
31121;BME280;17770;45.966;13.632;2023-06-26T01:57:31;100492.25;;;31.02;36.25
31121;BME280;17770;45.966;13.632;2023-06-26T01:59:58;100500.38;;;31.01;36.38
31121;BME280;17770;45.966;13.632;2023-06-26T02:02:27;100504.25;;;30.98;36.75
31121;BME280;17770;45.966;13.632;2023-06-26T02:04:54;100503.56;;;30.96;36.29
31121;BME280;17770;45.966;13.632;2023-06-26T02:07:20;100501.09;;;30.95;36.26
31121;BME280;17770;45.966;13.632;2023-06-26T02:09:46;100500.59;;;30.91;36.86
31121;BME280;17770;45.966;13.632;2023-06-26T02:12:12;100501.44;;;30.92;36.93
31121;BME280;17770;45.966;13.632;2023-06-26T02:14:37;100499.94;;;30.89;36.34
31121;BME280;17770;45.966;13.632;2023-06-26T02:17:04;100505.25;;;30.89;36.91
31121;BME280;17770;45.966;13.632;2023-06-26T02:19:30;100504.63;;;30.87;36.34
31121;BME280;17770;45.966;13.632;2023-06-26T02:21:57;100503.78;;;30.87;36.93
31121;BME280;17770;45.966;13.632;2023-06-26T02:24:23;100503.63;;;30.88;36.60
31121;BME280;17770;45.966;13.632;2023-06-26T02:26:49;100505.78;;;30.85;36.45
31121;BME280;17770;45.966;13.632;2023-06-26T02:29:15;100504.31;;;30.82;37.08
31121;BME280;17770;45.966;13.632;2023-06-26T02:31:41;100510.78;;;30.80;36.85
31121;BME280;17770;45.966;13.632;2023-06-26T02:34:07;100506.47;;;30.79;36.86
31121;BME280;17770;45.966;13.632;2023-06-26T02:36:33;100512.66;;;30.79;36.32
31121;BME280;17770;45.966;13.632;2023-06-26T02:38:59;100514.63;;;30.77;36.76
31121;BME280;17770;45.966;13.632;2023-06-26T02:41:25;100512.78;;;30.78;36.60
31121;BME280;17770;45.966;13.632;2023-06-26T02:43:51;100515.59;;;30.76;36.71
31121;BME280;17770;45.966;13.632;2023-06-26T02:46:18;100513.09;;;30.75;36.64
31121;BME280;17770;45.966;13.632;2023-06-26T02:48:43;100515.94;;;30.73;36.45
31121;BME280;17770;45.966;13.632;2023-06-26T02:51:09;100514.47;;;30.71;36.47
31121;BME280;17770;45.966;13.632;2023-06-26T02:53:36;100511.97;;;30.69;36.94
31121;BME280;17770;45.966;13.632;2023-06-26T02:56:01;100518.28;;;30.68;36.95
31121;BME280;17770;45.966;13.632;2023-06-26T02:58:28;100515.63;;;30.68;36.57
31121;BME280;17770;45.966;13.632;2023-06-26T03:00:54;100513.97;;;30.67;36.84
31121;BME280;17770;45.966;13.632;2023-06-26T03:03:20;100510.81;;;30.63;36.42
31121;BME280;17770;45.966;13.632;2023-06-26T03:05:46;100515.31;;;30.63;37.07
31121;BME280;17770;45.966;13.632;2023-06-26T03:08:12;100520.78;;;30.61;36.86
31121;BME280;17770;45.966;13.632;2023-06-26T03:10:38;100519.16;;;30.60;36.33
31121;BME280;17770;45.966;13.632;2023-06-26T03:13:05;100517.47;;;30.59;36.80
31121;BME280;17770;45.966;13.632;2023-06-26T03:15:31;100517.63;;;30.58;36.29
31121;BME280;17770;45.966;13.632;2023-06-26T03:17:57;100522.47;;;30.54;36.86
31121;BME280;17770;45.966;13.632;2023-06-26T03:20:26;100516.50;;;30.52;36.41
31121;BME280;17770;45.966;13.632;2023-06-26T03:22:54;100514.00;;;30.51;36.34
31121;BME280;17770;45.966;13.632;2023-06-26T03:25:21;100521.50;;;30.47;36.34
31121;BME280;17770;45.966;13.632;2023-06-26T03:27:47;100523.66;;;30.44;36.19
31121;BME280;17770;45.966;13.632;2023-06-26T03:30:15;100523.66;;;30.44;36.18
31121;BME280;17770;45.966;13.632;2023-06-26T03:32:43;100527.47;;;30.41;36.31
31121;BME280;17770;45.966;13.632;2023-06-26T03:35:09;100527.66;;;30.40;36.24
31121;BME280;17770;45.966;13.632;2023-06-26T03:37:35;100535.97;;;30.37;36.11
31121;BME280;17770;45.966;13.632;2023-06-26T03:40:01;100534.16;;;30.37;36.10
31121;BME280;17770;45.966;13.632;2023-06-26T03:42:27;100532.66;;;30.35;36.67
31121;BME280;17770;45.966;13.632;2023-06-26T03:44:53;100538.31;;;30.32;36.04
31121;BME280;17770;45.966;13.632;2023-06-26T03:47:19;100536.84;;;30.29;36.57
31121;BME280;17770;45.966;13.632;2023-06-26T03:49:45;100538.81;;;30.27;36.08
31121;BME280;17770;45.966;13.632;2023-06-26T03:52:11;100539.16;;;30.24;35.91
31121;BME280;17770;45.966;13.632;2023-06-26T03:54:39;100534.28;;;30.20;35.92
31121;BME280;17770;45.966;13.632;2023-06-26T03:57:04;100534.28;;;30.20;36.42
31121;BME280;17770;45.966;13.632;2023-06-26T03:59:30;100532.47;;;30.20;36.49
31121;BME280;17770;45.966;13.632;2023-06-26T04:01:56;100530.81;;;30.19;36.32
31121;BME280;17770;45.966;13.632;2023-06-26T04:04:22;100533.94;;;30.15;36.25
31121;BME280;17770;45.966;13.632;2023-06-26T04:06:48;100529.63;;;30.14;35.95
31121;BME280;17770;45.966;13.632;2023-06-26T04:09:14;100525.31;;;30.13;36.42
31121;BME280;17770;45.966;13.632;2023-06-26T04:11:40;100532.47;;;30.12;36.09
31121;BME280;17770;45.966;13.632;2023-06-26T04:14:06;100540.63;;;30.11;35.97
31121;BME280;17770;45.966;13.632;2023-06-26T04:16:31;100541.59;;;30.10;36.29
31121;BME280;17770;45.966;13.632;2023-06-26T04:18:57;100545.09;;;30.10;36.47
31121;BME280;17770;45.966;13.632;2023-06-26T04:21:23;100537.13;;;30.10;36.00
31121;BME280;17770;45.966;13.632;2023-06-26T04:23:52;100531.97;;;30.09;36.04
31121;BME280;17770;45.966;13.632;2023-06-26T04:26:18;100540.13;;;30.07;36.18
31121;BME280;17770;45.966;13.632;2023-06-26T04:28:44;100538.75;;;30.03;36.02
31121;BME280;17770;45.966;13.632;2023-06-26T04:31:10;100527.66;;;30.00;35.99
31121;BME280;17770;45.966;13.632;2023-06-26T04:33:36;100536.59;;;29.99;35.82
31121;BME280;17770;45.966;13.632;2023-06-26T04:36:05;100550.25;;;29.96;35.80
31121;BME280;17770;45.966;13.632;2023-06-26T04:38:34;100541.59;;;29.94;35.53
31121;BME280;17770;45.966;13.632;2023-06-26T04:41:00;100546.25;;;29.92;35.66
31121;BME280;17770;45.966;13.632;2023-06-26T04:43:26;100544.75;;;29.89;35.86
31121;BME280;17770;45.966;13.632;2023-06-26T04:45:52;100546.56;;;29.89;36.13
31121;BME280;17770;45.966;13.632;2023-06-26T04:48:18;100551.22;;;29.87;36.03
31121;BME280;17770;45.966;13.632;2023-06-26T04:50:43;100547.91;;;29.85;36.00
31121;BME280;17770;45.966;13.632;2023-06-26T04:53:18;100553.22;;;29.85;35.99
31121;BME280;17770;45.966;13.632;2023-06-26T04:55:44;100553.22;;;29.85;35.96
31121;BME280;17770;45.966;13.632;2023-06-26T04:58:09;100552.56;;;29.83;36.03
31121;BME280;17770;45.966;13.632;2023-06-26T05:00:35;100555.38;;;29.81;35.71
31121;BME280;17770;45.966;13.632;2023-06-26T05:03:01;100552.72;;;29.81;35.80
31121;BME280;17770;45.966;13.632;2023-06-26T05:05:27;100553.53;;;29.82;36.13
31121;BME280;17770;45.966;13.632;2023-06-26T05:07:54;100548.56;;;29.79;35.96
31121;BME280;17770;45.966;13.632;2023-06-26T05:10:20;100554.88;;;29.78;36.08
31121;BME280;17770;45.966;13.632;2023-06-26T05:12:46;100555.03;;;29.76;35.97
31121;BME280;17770;45.966;13.632;2023-06-26T05:15:12;100550.69;;;29.75;36.13
31121;BME280;17770;45.966;13.632;2023-06-26T05:17:37;100544.75;;;29.73;36.08
31121;BME280;17770;45.966;13.632;2023-06-26T05:20:03;100551.88;;;29.73;36.31
31121;BME280;17770;45.966;13.632;2023-06-26T05:22:32;100548.38;;;29.72;36.29
31121;BME280;17770;45.966;13.632;2023-06-26T05:24:57;100542.25;;;29.72;36.35
31121;BME280;17770;45.966;13.632;2023-06-26T05:27:24;100545.53;;;29.74;36.17
31121;BME280;17770;45.966;13.632;2023-06-26T05:29:50;100545.53;;;29.74;36.45
31121;BME280;17770;45.966;13.632;2023-06-26T05:32:16;100543.06;;;29.72;36.19
31121;BME280;17770;45.966;13.632;2023-06-26T05:34:48;100540.22;;;29.74;36.21
31121;BME280;17770;45.966;13.632;2023-06-26T05:37:17;100546.56;;;29.73;36.32
31121;BME280;17770;45.966;13.632;2023-06-26T05:39:44;100546.56;;;29.73;36.20
31121;BME280;17770;45.966;13.632;2023-06-26T05:42:10;100548.38;;;29.72;36.29
31121;BME280;17770;45.966;13.632;2023-06-26T05:44:36;100552.19;;;29.70;36.44
31121;BME280;17770;45.966;13.632;2023-06-26T05:47:02;100550.34;;;29.70;36.71
31121;BME280;17770;45.966;13.632;2023-06-26T05:49:28;100549.72;;;29.68;36.52
31121;BME280;17770;45.966;13.632;2023-06-26T05:51:54;100550.69;;;29.67;36.63
31121;BME280;17770;45.966;13.632;2023-06-26T05:54:20;100552.38;;;29.68;36.35
31121;BME280;17770;45.966;13.632;2023-06-26T05:56:47;100558.50;;;29.69;36.40
31121;BME280;17770;45.966;13.632;2023-06-26T05:59:14;100552.53;;;29.67;36.48
31121;BME280;17770;45.966;13.632;2023-06-26T06:01:41;100554.03;;;29.69;36.73
31121;BME280;17770;45.966;13.632;2023-06-26T06:04:07;100556.69;;;29.69;36.67
31121;BME280;17770;45.966;13.632;2023-06-26T06:06:33;100556.00;;;29.67;36.40
31121;BME280;17770;45.966;13.632;2023-06-26T06:08:59;100550.53;;;29.69;36.52
31121;BME280;17770;45.966;13.632;2023-06-26T06:11:24;100559.50;;;29.68;36.82
31121;BME280;17770;45.966;13.632;2023-06-26T06:13:50;100549.72;;;29.68;36.59
31121;BME280;17770;45.966;13.632;2023-06-26T06:16:16;100551.53;;;29.68;36.77
31121;BME280;17770;45.966;13.632;2023-06-26T06:18:43;100555.84;;;29.69;36.48
31121;BME280;17770;45.966;13.632;2023-06-26T06:21:08;100549.72;;;29.68;36.38
31121;BME280;17770;45.966;13.632;2023-06-26T06:23:34;100546.03;;;29.69;36.73
31121;BME280;17770;45.966;13.632;2023-06-26T06:26:00;100552.19;;;29.70;36.99
31121;BME280;17770;45.966;13.632;2023-06-26T06:28:26;100547.69;;;29.70;36.77
31121;BME280;17770;45.966;13.632;2023-06-26T06:30:52;100546.88;;;29.70;36.81
31121;BME280;17770;45.966;13.632;2023-06-26T06:33:18;100542.53;;;29.69;36.77
31121;BME280;17770;45.966;13.632;2023-06-26T06:35:43;100553.00;;;29.70;36.83
31121;BME280;17770;45.966;13.632;2023-06-26T06:38:10;100549.72;;;29.68;37.48
31121;BME280;17770;45.966;13.632;2023-06-26T06:40:35;100541.19;;;29.57;37.46
31121;BME280;17770;45.966;13.632;2023-06-26T06:43:01;100539.47;;;29.48;38.06
31121;BME280;17770;45.966;13.632;2023-06-26T06:45:27;100532.84;;;29.44;37.75
31121;BME280;17770;45.966;13.632;2023-06-26T06:47:53;100535.97;;;29.47;37.89
31121;BME280;17770;45.966;13.632;2023-06-26T06:50:19;100530.00;;;29.45;38.27
31121;BME280;17770;45.966;13.632;2023-06-26T06:52:45;100533.13;;;29.40;38.07
31121;BME280;17770;45.966;13.632;2023-06-26T06:55:11;100526.00;;;29.41;38.07
31121;BME280;17770;45.966;13.632;2023-06-26T06:57:37;100528.81;;;29.39;38.05
31121;BME280;17770;45.966;13.632;2023-06-26T07:02:30;100524.00;;;29.35;38.11
31121;BME280;17770;45.966;13.632;2023-06-26T07:04:56;100528.31;;;29.36;38.13
31121;BME280;17770;45.966;13.632;2023-06-26T07:07:21;100521.13;;;29.20;39.30
31121;BME280;17770;45.966;13.632;2023-06-26T07:09:47;100527.69;;;29.08;38.94
31121;BME280;17770;45.966;13.632;2023-06-26T07:12:13;100534.19;;;29.14;38.70
31121;BME280;17770;45.966;13.632;2023-06-26T07:14:39;100536.06;;;29.21;38.52
31121;BME280;17770;45.966;13.632;2023-06-26T07:17:05;100533.81;;;29.09;38.96
31121;BME280;17770;45.966;13.632;2023-06-26T07:19:31;100539.25;;;28.99;39.17
31121;BME280;17770;45.966;13.632;2023-06-26T07:21:56;100534.28;;;29.04;38.85
31121;BME280;17770;45.966;13.632;2023-06-26T07:24:22;100540.00;;;29.17;38.39
31121;BME280;17770;45.966;13.632;2023-06-26T07:26:48;100534.28;;;29.30;37.73
31121;BME280;17770;45.966;13.632;2023-06-26T07:29:14;100526.50;;;29.36;38.01
31121;BME280;17770;45.966;13.632;2023-06-26T07:31:40;100525.09;;;29.24;38.29
31121;BME280;17770;45.966;13.632;2023-06-26T07:34:06;100522.13;;;29.27;38.47
31121;BME280;17770;45.966;13.632;2023-06-26T07:36:32;100522.25;;;29.18;38.54
31121;BME280;17770;45.966;13.632;2023-06-26T07:38:58;100528.25;;;29.20;38.43
31121;BME280;17770;45.966;13.632;2023-06-26T07:41:23;100520.13;;;29.29;38.29
31121;BME280;17770;45.966;13.632;2023-06-26T07:43:49;100523.66;;;29.38;38.24
31121;BME280;17770;45.966;13.632;2023-06-26T07:46:15;100520.78;;;29.23;38.21
31121;BME280;17770;45.966;13.632;2023-06-26T07:48:41;100521.16;;;29.03;38.54
31121;BME280;17770;45.966;13.632;2023-06-26T07:51:07;100519.94;;;29.15;38.51
31121;BME280;17770;45.966;13.632;2023-06-26T07:53:33;100529.94;;;29.29;38.48
31121;BME280;17770;45.966;13.632;2023-06-26T07:55:58;100526.97;;;29.32;38.39
31121;BME280;17770;45.966;13.632;2023-06-26T07:58:24;100522.63;;;29.23;38.49
31121;BME280;17770;45.966;13.632;2023-06-26T08:00:51;100516.44;;;29.14;38.55
31121;BME280;17770;45.966;13.632;2023-06-26T08:03:17;100520.28;;;29.20;38.60
31121;BME280;17770;45.966;13.632;2023-06-26T08:05:43;100517.31;;;29.31;38.15
31121;BME280;17770;45.966;13.632;2023-06-26T08:08:08;100519.84;;;29.40;37.91
31121;BME280;17770;45.966;13.632;2023-06-26T08:10:34;100520.19;;;29.46;37.77
31121;BME280;17770;45.966;13.632;2023-06-26T08:13:00;100513.53;;;29.42;37.99
31121;BME280;17770;45.966;13.632;2023-06-26T08:15:26;100509.56;;;29.46;37.51
31121;BME280;17770;45.966;13.632;2023-06-26T08:17:52;100515.38;;;29.49;37.85
31121;BME280;17770;45.966;13.632;2023-06-26T08:20:18;100517.41;;;29.55;37.15
31121;BME280;17770;45.966;13.632;2023-06-26T08:22:45;100519.78;;;29.66;37.22
31121;BME280;17770;45.966;13.632;2023-06-26T08:25:13;100519.06;;;29.64;37.78
31121;BME280;17770;45.966;13.632;2023-06-26T08:27:39;100519.56;;;29.60;37.19
31121;BME280;17770;45.966;13.632;2023-06-26T08:30:05;100510.06;;;29.57;37.50
31121;BME280;17770;45.966;13.632;2023-06-26T08:32:31;100506.28;;;29.60;37.69
31121;BME280;17770;45.966;13.632;2023-06-26T08:34:57;100504.56;;;29.51;37.60
31121;BME280;17770;45.966;13.632;2023-06-26T08:37:22;100495.47;;;29.61;37.55
31121;BME280;17770;45.966;13.632;2023-06-26T08:39:48;100497.13;;;29.54;37.46
31121;BME280;17770;45.966;13.632;2023-06-26T08:42:14;100504.13;;;29.63;36.70
31121;BME280;17770;45.966;13.632;2023-06-26T08:44:40;100497.34;;;29.77;36.91
31121;BME280;17770;45.966;13.632;2023-06-26T08:47:07;100496.88;;;29.81;37.02
31121;BME280;17770;45.966;13.632;2023-06-26T08:49:37;100497.66;;;29.74;37.04
31121;BME280;17770;45.966;13.632;2023-06-26T08:52:16;100493.88;;;29.76;36.76
31121;BME280;17770;45.966;13.632;2023-06-26T08:54:45;100491.72;;;29.80;37.19
31121;BME280;17770;45.966;13.632;2023-06-26T08:57:14;100495.19;;;29.72;36.82
31121;BME280;17770;45.966;13.632;2023-06-26T08:59:41;100491.72;;;29.72;37.07
31121;BME280;17770;45.966;13.632;2023-06-26T09:02:07;100498.34;;;29.76;36.67
31121;BME280;17770;45.966;13.632;2023-06-26T09:04:33;100493.38;;;29.89;36.74
31121;BME280;17770;45.966;13.632;2023-06-26T09:07:00;100486.06;;;29.83;36.25
31121;BME280;17770;45.966;13.632;2023-06-26T09:09:26;100490.03;;;29.87;36.29
31121;BME280;17770;45.966;13.632;2023-06-26T09:11:52;100494.38;;;29.96;36.38
31121;BME280;17770;45.966;13.632;2023-06-26T09:14:17;100490.69;;;29.97;36.26
31121;BME280;17770;45.966;13.632;2023-06-26T09:16:43;100486.56;;;29.86;36.77
31121;BME280;17770;45.966;13.632;2023-06-26T09:19:12;100484.75;;;29.95;36.73
31121;BME280;17770;45.966;13.632;2023-06-26T09:21:39;100474.25;;;30.09;36.51
31121;BME280;17770;45.966;13.632;2023-06-26T09:24:06;100483.38;;;30.07;36.29
31121;BME280;17770;45.966;13.632;2023-06-26T09:26:32;100481.56;;;30.07;36.10
31121;BME280;17770;45.966;13.632;2023-06-26T09:28:58;100478.06;;;30.15;36.41
31121;BME280;17770;45.966;13.632;2023-06-26T09:31:24;100470.56;;;30.18;35.95
31121;BME280;17770;45.966;13.632;2023-06-26T09:33:53;100471.06;;;30.22;36.00
31121;BME280;17770;45.966;13.632;2023-06-26T09:36:21;100463.44;;;30.19;36.55
31121;BME280;17770;45.966;13.632;2023-06-26T09:38:50;100458.47;;;30.24;36.49
31121;BME280;17770;45.966;13.632;2023-06-26T09:41:17;100464.44;;;30.18;36.87
31121;BME280;17770;45.966;13.632;2023-06-26T09:43:50;100467.56;;;30.21;36.59
31121;BME280;17770;45.966;13.632;2023-06-26T09:46:16;100462.63;;;30.34;35.94
31121;BME280;17770;45.966;13.632;2023-06-26T09:48:43;100454.44;;;30.44;36.30
31121;BME280;17770;45.966;13.632;2023-06-26T09:51:09;100449.13;;;30.44;36.29
31121;BME280;17770;45.966;13.632;2023-06-26T09:53:35;100451.78;;;30.44;36.17
31121;BME280;17770;45.966;13.632;2023-06-26T09:56:07;100449.28;;;30.42;36.55
31121;BME280;17770;45.966;13.632;2023-06-26T09:58:40;100448.78;;;30.39;37.22
31121;BME280;17770;45.966;13.632;2023-06-26T10:01:07;100454.25;;;30.45;37.35
31121;BME280;17770;45.966;13.632;2023-06-26T10:03:35;100446.13;;;30.39;36.31
31121;BME280;17770;45.966;13.632;2023-06-26T10:06:02;100448.47;;;30.34;36.41
31121;BME280;17770;45.966;13.632;2023-06-26T10:08:28;100445.63;;;30.35;36.56
31121;BME280;17770;45.966;13.632;2023-06-26T10:10:55;100441.28;;;30.42;37.19
31121;BME280;17770;45.966;13.632;2023-06-26T10:13:22;100431.28;;;30.52;37.21
31121;BME280;17770;45.966;13.632;2023-06-26T10:15:50;100437.88;;;30.64;37.17
31121;BME280;17770;45.966;13.632;2023-06-26T10:18:17;100438.53;;;30.67;37.09
31121;BME280;17770;45.966;13.632;2023-06-26T10:20:45;100437.25;;;30.63;36.50
31121;BME280;17770;45.966;13.632;2023-06-26T10:23:12;100439.38;;;30.67;36.37
31121;BME280;17770;45.966;13.632;2023-06-26T10:25:41;100442.38;;;30.72;36.52
31121;BME280;17770;45.966;13.632;2023-06-26T10:28:07;100437.03;;;30.72;36.65
31121;BME280;17770;45.966;13.632;2023-06-26T10:30:34;100431.88;;;30.71;36.29
31121;BME280;17770;45.966;13.632;2023-06-26T10:33:02;100427.84;;;30.83;36.68
31121;BME280;17770;45.966;13.632;2023-06-26T10:35:29;100429.00;;;30.88;36.66
31121;BME280;17770;45.966;13.632;2023-06-26T10:38:02;100428.66;;;30.91;37.66
31121;BME280;17770;45.966;13.632;2023-06-26T10:40:39;100428.66;;;30.91;37.57
31121;BME280;17770;45.966;13.632;2023-06-26T10:43:06;100425.50;;;30.96;36.68
31121;BME280;17770;45.966;13.632;2023-06-26T10:45:35;100432.72;;;30.79;36.26
31121;BME280;17770;45.966;13.632;2023-06-26T10:48:02;100421.72;;;30.82;37.36
31121;BME280;17770;45.966;13.632;2023-06-26T10:50:32;100428.28;;;31.02;36.99
31121;BME280;17770;45.966;13.632;2023-06-26T10:53:10;100423.75;;;31.03;36.67
31121;BME280;17770;45.966;13.632;2023-06-26T10:55:36;100426.72;;;31.08;36.89
31121;BME280;17770;45.966;13.632;2023-06-26T10:58:05;100425.44;;;31.04;36.59
31121;BME280;17770;45.966;13.632;2023-06-26T11:00:51;100425.13;;;30.99;36.83
31121;BME280;17770;45.966;13.632;2023-06-26T11:03:22;100417.09;;;31.07;38.19
31121;BME280;17770;45.966;13.632;2023-06-26T11:06:08;100417.03;;;31.15;37.42
31121;BME280;17770;45.966;13.632;2023-06-26T11:08:47;100414.84;;;31.18;37.33
31121;BME280;17770;45.966;13.632;2023-06-26T11:11:13;100411.16;;;31.19;36.92
31121;BME280;17770;45.966;13.632;2023-06-26T11:13:39;100418.66;;;31.24;36.66
31121;BME280;17770;45.966;13.632;2023-06-26T11:16:06;100409.94;;;31.30;36.67
31121;BME280;17770;45.966;13.632;2023-06-26T11:18:32;100412.78;;;31.28;37.29
31121;BME280;17770;45.966;13.632;2023-06-26T11:21:31;100412.44;;;31.31;36.78
31121;BME280;17770;45.966;13.632;2023-06-26T11:23:50;100406.97;;;31.25;37.32
31121;BME280;17770;45.966;13.632;2023-06-26T11:26:17;100406.78;;;31.34;37.42
31121;BME280;17770;45.966;13.632;2023-06-26T11:29:01;100407.91;;;31.40;37.51
31121;BME280;17770;45.966;13.632;2023-06-26T11:31:30;100402.88;;;31.45;36.90
31121;BME280;17770;45.966;13.632;2023-06-26T11:33:57;100407.56;;;31.43;37.74
31121;BME280;17770;45.966;13.632;2023-06-26T11:36:24;100403.75;;;31.60;37.29
31121;BME280;17770;45.966;13.632;2023-06-26T11:38:57;100405.34;;;31.69;36.82
31121;BME280;17770;45.966;13.632;2023-06-26T11:41:25;100407.16;;;31.68;37.41
31121;BME280;17770;45.966;13.632;2023-06-26T11:43:51;100399.00;;;31.70;37.38
31121;BME280;17770;45.966;13.632;2023-06-26T11:46:18;100391.16;;;31.68;36.96
31121;BME280;17770;45.966;13.632;2023-06-26T11:48:44;100395.31;;;31.71;36.70
31121;BME280;17770;45.966;13.632;2023-06-26T11:51:14;100394.31;;;31.72;36.76
31121;BME280;17770;45.966;13.632;2023-06-26T11:53:40;100396.78;;;31.73;36.94
31121;BME280;17770;45.966;13.632;2023-06-26T11:56:10;100397.44;;;31.75;36.11
31121;BME280;17770;45.966;13.632;2023-06-26T11:58:52;100391.75;;;31.78;36.80
31121;BME280;17770;45.966;13.632;2023-06-26T12:01:18;100397.19;;;31.85;35.72
31121;BME280;17770;45.966;13.632;2023-06-26T12:03:44;100387.47;;;31.92;36.39
31121;BME280;17770;45.966;13.632;2023-06-26T12:06:10;100385.47;;;32.09;35.48
31121;BME280;17770;45.966;13.632;2023-06-26T12:08:36;100385.94;;;31.98;36.71
31121;BME280;17770;45.966;13.632;2023-06-26T12:11:02;100391.75;;;32.01;36.69
31121;BME280;17770;45.966;13.632;2023-06-26T12:13:29;100385.47;;;31.94;36.50
31121;BME280;17770;45.966;13.632;2023-06-26T12:15:55;100383.19;;;32.06;36.26
31121;BME280;17770;45.966;13.632;2023-06-26T12:18:21;100381.59;;;31.97;36.24
31121;BME280;17770;45.966;13.632;2023-06-26T12:20:49;100375.53;;;32.03;36.05
31121;BME280;17770;45.966;13.632;2023-06-26T12:23:15;100373.81;;;32.10;36.55
31121;BME280;17770;45.966;13.632;2023-06-26T12:25:41;100381.16;;;32.08;36.38
31121;BME280;17770;45.966;13.632;2023-06-26T12:28:17;100378.88;;;32.05;36.49
31121;BME280;17770;45.966;13.632;2023-06-26T12:30:47;100375.00;;;32.22;35.58
31121;BME280;17770;45.966;13.632;2023-06-26T12:33:14;100374.16;;;32.07;36.29
31121;BME280;17770;45.966;13.632;2023-06-26T12:35:40;100376.63;;;31.94;36.19
31121;BME280;17770;45.966;13.632;2023-06-26T12:38:07;100378.59;;;32.00;35.61
31121;BME280;17770;45.966;13.632;2023-06-26T12:40:35;100374.59;;;31.96;36.57
31121;BME280;17770;45.966;13.632;2023-06-26T12:43:02;100369.56;;;32.01;35.94
31121;BME280;17770;45.966;13.632;2023-06-26T12:45:27;100371.66;;;32.05;35.95
31121;BME280;17770;45.966;13.632;2023-06-26T12:50:54;100368.09;;;32.13;35.52